Time;durP1;ratioP1;P1;durP2;ratioP2;P2;SDS_P1;SDS_P2;PMS_P1;PMS_P2;Temp;Humidity;BMP_temperature;BMP_pressure;BME280_temperature;BME280_humidity;BME280_pressure;Samples;Min_cycle;Max_cycle;Signal;HPM_P1;HPM_P2
2022/03/17 00:00:44;;;;;;;;;;;11.20;99.90;;;;;;5154325;27;20693;-73
2022/03/17 00:03:10;;;;;;;24.02;14.02;;;11.10;99.90;;;;;;5153098;27;19972;-74
2022/03/17 00:05:37;;;;;;;;;;;11.10;99.90;;;;;;5153675;27;20116;-74
2022/03/17 00:08:03;;;;;;;25.15;13.88;;;11.00;99.90;;;;;;5153901;27;20358;-74
2022/03/17 00:10:29;;;;;;;22.98;14.95;;;11.00;99.90;;;;;;5153668;27;20068;-74
2022/03/17 00:12:55;;;;;;;;;;;10.90;99.90;;;;;;5135621;27;20047;-74
2022/03/17 00:15:20;;;;;;;24.17;14.85;;;10.90;99.90;;;;;;5134234;27;20373;-74
2022/03/17 00:17:46;;;;;;;;;;;10.80;99.90;;;;;;5133840;27;20126;-74
2022/03/17 00:20:13;;;;;;;21.95;13.50;;;10.80;99.90;;;;;;5152763;27;19932;-74
2022/03/17 00:22:39;;;;;;;25.23;15.02;;;10.90;99.90;;;;;;5134892;27;20606;-73
2022/03/17 00:25:06;;;;;;;25.27;13.75;;;10.90;99.90;;;;;;5152941;27;20405;-73
2022/03/17 00:27:32;;;;;;;22.17;13.27;;;10.80;99.90;;;;;;5136014;27;20489;-74
2022/03/17 00:29:58;;;;;;;20.83;12.88;;;10.80;99.90;;;;;;5147491;27;20070;-74
2022/03/17 00:32:24;;;;;;;;;;;10.80;99.90;;;;;;5136818;27;20493;-74
2022/03/17 00:37:35;;;;;;;26.38;14.32;;;10.90;99.90;;;;;;5136810;27;20043;-74
2022/03/17 00:40:00;;;;;;;;;;;10.70;99.90;;;;;;5118636;27;20424;-75
2022/03/17 00:42:27;;;;;;;21.80;14.45;;;10.70;99.90;;;;;;5117208;27;19921;-75
2022/03/17 00:44:55;;;;;;;24.20;12.38;;;10.70;99.90;;;;;;5137267;27;20500;-75
2022/03/17 00:47:24;;;;;;;24.45;14.63;;;10.80;99.90;;;;;;5136208;27;20031;-75
2022/03/17 00:49:50;;;;;;;23.60;14.98;;;10.70;99.90;;;;;;5135507;27;20474;-75
2022/03/17 00:52:17;;;;;;;;;;;10.80;99.90;;;;;;5118437;27;20039;-75
2022/03/17 00:54:43;;;;;;;25.70;14.15;;;10.70;99.90;;;;;;5117299;27;20533;-75
2022/03/17 00:57:09;;;;;;;;;;;10.80;99.90;;;;;;5136550;27;20043;-75
2022/03/17 00:59:38;;;;;;;23.85;13.00;;;10.80;99.90;;;;;;5138381;27;19919;-75
2022/03/17 01:02:04;;;;;;;25.08;15.30;;;10.80;99.90;;;;;;5156036;27;20091;-75
2022/03/17 01:04:30;;;;;;;24.60;15.43;;;10.80;99.90;;;;;;5157197;27;20126;-75
2022/03/17 01:06:56;;;;;;;;;;;10.80;99.90;;;;;;5138928;27;20078;-75
2022/03/17 01:09:21;;;;;;;23.08;14.77;;;10.80;99.90;;;;;;5154284;27;20010;-75
2022/03/17 01:11:50;;;;;;;;;;;10.80;99.90;;;;;;5138600;27;20038;-76
2022/03/17 01:14:15;;;;;;;21.55;13.68;;;10.70;99.90;;;;;;5136818;27;19919;-75
2022/03/17 01:16:41;;;;;;;;;;;10.80;99.90;;;;;;5116063;27;20617;-75
2022/03/17 01:19:07;;;;;;;26.75;14.13;;;10.70;99.90;;;;;;5115876;27;19923;-75
2022/03/17 01:21:32;;;;;;;;;;;10.80;99.90;;;;;;5136184;27;20172;-75
2022/03/17 01:23:58;;;;;;;27.02;15.70;;;10.70;99.90;;;;;;5117156;27;19919;-75
2022/03/17 01:26:24;;;;;;;;;;;10.60;99.90;;;;;;5135695;27;20486;-75
2022/03/17 01:28:50;;;;;;;26.25;16.35;;;10.40;99.90;;;;;;5136490;27;19920;-75
2022/03/17 01:31:15;;;;;;;;;;;10.40;99.90;;;;;;5134975;27;20043;-75
2022/03/17 01:33:41;;;;;;;24.30;15.07;;;10.40;99.90;;;;;;5117530;27;20029;-75
2022/03/17 01:36:06;;;;;;;;;;;10.50;99.90;;;;;;5135531;27;20478;-75
2022/03/17 01:38:33;;;;;;;24.08;16.30;;;10.50;99.90;;;;;;5135844;27;19919;-75
2022/03/17 01:41:00;;;;;;;30.05;16.50;;;10.40;99.90;;;;;;5135298;27;20460;-75
2022/03/17 01:43:26;;;;;;;25.05;14.88;;;10.40;99.90;;;;;;5135153;27;20031;-75
2022/03/17 01:45:52;;;;;;;22.40;14.40;;;10.30;99.90;;;;;;5136142;27;20051;-74
2022/03/17 01:48:19;;;;;;;25.55;15.73;;;10.30;99.90;;;;;;5136265;27;20063;-75
2022/03/17 01:50:45;;;;;;;26.48;16.08;;;10.30;99.90;;;;;;5134979;27;20100;-75
2022/03/17 01:53:11;;;;;;;;;;;10.20;99.90;;;;;;5135238;27;20435;-75
2022/03/17 01:55:37;;;;;;;27.13;17.17;;;10.20;99.90;;;;;;5118441;27;19919;-73
2022/03/17 01:58:03;;;;;;;26.23;16.48;;;10.20;99.90;;;;;;5134509;27;20044;-72
2022/03/17 02:00:28;;;;;;;;;;;10.10;99.90;;;;;;5135340;27;20080;-72
2022/03/17 02:02:54;;;;;;;28.27;16.60;;;10.10;99.90;;;;;;5154649;27;19918;-73
2022/03/17 02:05:20;;;;;;;;;;;10.00;99.90;;;;;;5154568;27;20054;-73
2022/03/17 02:07:49;;;;;;;28.27;16.45;;;10.00;99.90;;;;;;5155266;27;19918;-72
2022/03/17 02:10:14;;;;;;;28.42;16.48;;;9.90;99.90;;;;;;5155392;27;20046;-72
2022/03/17 02:15:27;;;;;;;27.35;17.17;;;10.00;99.90;;;;;;5155441;27;19961;-73
2022/03/17 02:17:53;;;;;;;28.92;18.10;;;10.00;99.90;;;;;;5137063;27;20035;-72
2022/03/17 02:20:19;;;;;;;;;;;10.00;99.90;;;;;;5151719;27;20049;-72
2022/03/17 02:22:49;;;;;;;28.65;17.60;;;10.00;99.90;;;;;;5134839;27;19926;-74
2022/03/17 02:25:36;;;;;;;32.17;19.65;;;10.00;99.90;;;;;;5116117;27;20112;-74
2022/03/17 02:28:06;;;;;;;25.85;14.93;;;10.00;99.90;;;;;;5133925;27;20054;-74
2022/03/17 02:30:35;;;;;;;31.05;18.08;;;10.10;99.90;;;;;;5135592;27;20051;-74
2022/03/17 02:33:13;;;;;;;33.05;20.95;;;10.10;99.90;;;;;;5115415;27;20039;-74
2022/03/17 02:35:43;;;;;;;28.65;17.67;;;9.90;99.90;;;;;;5134482;27;20051;-74
2022/03/17 02:38:13;;;;;;;30.42;19.23;;;10.90;99.90;;;;;;5115936;27;20122;-75
2022/03/17 02:40:40;;;;;;;30.65;19.10;;;9.90;99.90;;;;;;5144153;27;20150;-74
2022/03/17 02:43:06;;;;;;;33.30;17.13;;;9.90;99.90;;;;;;5134419;27;20049;-75
2022/03/17 02:45:33;;;;;;;31.25;18.42;;;10.00;99.90;;;;;;5136904;27;20054;-75
2022/03/17 02:47:58;;;;;;;32.28;18.38;;;10.00;99.90;;;;;;5134008;27;20045;-74
2022/03/17 02:50:24;;;;;;;;;;;9.90;99.90;;;;;;5154339;27;20042;-76
2022/03/17 02:52:50;;;;;;;36.90;20.77;;;9.90;99.90;;;;;;5136639;27;20405;-76
2022/03/17 02:55:16;;;;;;;;;;;9.90;99.90;;;;;;5145934;27;20039;-76
2022/03/17 02:57:44;;;;;;;32.30;19.15;;;9.90;99.90;;;;;;5134180;27;19923;-76
2022/03/17 03:00:11;;;;;;;30.85;19.00;;;9.90;99.90;;;;;;5115345;27;20043;-76
2022/03/17 03:02:39;;;;;;;34.30;18.48;;;9.90;99.90;;;;;;5133018;27;20090;-76
2022/03/17 03:05:09;;;;;;;32.10;19.45;;;9.80;99.90;;;;;;5116178;27;20377;-76
2022/03/17 03:07:36;;;;;;;30.58;18.52;;;9.80;99.90;;;;;;5122759;27;20095;-76
2022/03/17 03:10:03;;;;;;;36.15;21.25;;;9.90;99.90;;;;;;5139300;27;20043;-76
2022/03/17 03:12:28;;;;;;;33.15;20.02;;;9.90;99.90;;;;;;5140343;27;20434;-76
2022/03/17 03:14:54;;;;;;;;;;;9.80;99.90;;;;;;5142394;27;20034;-76
2022/03/17 03:17:21;;;;;;;37.10;21.25;;;9.80;99.90;;;;;;5122631;27;20434;-76
2022/03/17 03:19:48;;;;;;;34.83;19.13;;;9.70;99.90;;;;;;5124086;27;20065;-76
2022/03/17 03:22:13;;;;;;;39.10;20.98;;;9.70;99.90;;;;;;5116681;27;20046;-76
2022/03/17 03:24:39;;;;;;;;;;;9.70;99.90;;;;;;5139466;27;20061;-76
2022/03/17 03:27:05;;;;;;;37.78;20.50;;;9.60;99.90;;;;;;5143238;27;19919;-76
2022/03/17 03:29:31;;;;;;;;;;;9.50;99.90;;;;;;5139186;27;20088;-77
2022/03/17 03:31:59;;;;;;;35.78;20.13;;;10.10;99.90;;;;;;5113101;27;19927;-76
2022/03/17 03:34:25;;;;;;;33.85;20.60;;;9.50;99.90;;;;;;5131589;27;20047;-76
2022/03/17 03:39:38;;;;;;;36.60;22.13;;;9.30;99.90;;;;;;5143093;27;20035;-76
2022/03/17 03:42:07;;;;;;;36.05;20.45;;;9.30;99.90;;;;;;5123473;27;20058;-76
2022/03/17 03:44:33;;;;;;;36.15;21.77;;;9.20;99.90;;;;;;5142886;27;20046;-76
2022/03/17 03:46:59;;;;;;;;;;;9.30;99.90;;;;;;5138608;27;20055;-76
2022/03/17 03:49:25;;;;;;;38.85;20.25;;;9.30;99.90;;;;;;5132597;28;19920;-76
2022/03/17 03:51:50;;;;;;;;;;;9.40;99.90;;;;;;5132243;28;20134;-76
2022/03/17 03:54:17;;;;;;;34.55;18.27;;;9.40;99.90;;;;;;5131329;28;19926;-76
2022/03/17 03:56:50;;;;;;;29.27;17.75;;;9.40;99.90;;;;;;5116402;27;20231;-76
2022/03/17 03:59:21;;;;;;;18.40;11.00;;;9.50;99.90;;;;;;5150400;27;20485;-76
2022/03/17 04:01:48;;;;;;;14.30;7.25;;;9.20;99.90;;;;;;5155243;27;20438;-76
2022/03/17 04:04:20;;;;;;;10.27;6.47;;;8.90;99.90;;;;;;5157516;27;20050;-76
2022/03/17 04:06:50;;;;;;;12.18;7.20;;;8.70;99.90;;;;;;5157653;27;20516;-76
2022/03/17 04:09:23;;;;;;;12.20;7.40;;;8.60;99.90;;;;;;5157937;27;20053;-76
2022/03/17 04:11:50;;;;;;;11.40;6.90;;;8.40;99.90;;;;;;5136860;27;20049;-76
2022/03/17 04:14:16;;;;;;;11.48;6.65;;;8.30;99.90;;;;;;5118731;27;20115;-76
2022/03/17 04:16:42;;;;;;;12.40;6.35;;;8.20;99.90;;;;;;5137122;27;20423;-76
2022/03/17 04:19:09;;;;;;;;;;;8.10;99.90;;;;;;5136705;27;20180;-76
2022/03/17 04:21:35;;;;;;;11.25;5.95;;;8.00;99.90;;;;;;5137429;27;20006;-76
2022/03/17 04:24:00;;;;;;;;;;;8.00;99.90;;;;;;5149054;27;20078;-77
2022/03/17 04:26:26;;;;;;;14.05;5.85;;;7.90;99.90;;;;;;5138452;27;19925;-76
2022/03/17 04:28:52;;;;;;;9.50;5.20;;;7.90;99.90;;;;;;5157512;27;20059;-76
2022/03/17 04:31:18;;;;;;;;;;;7.90;99.90;;;;;;5157590;27;20121;-76
2022/03/17 04:33:44;;;;;;;11.85;5.55;;;7.80;99.90;;;;;;5138360;27;19959;-76
2022/03/17 04:36:12;;;;;;;;;;;7.80;99.90;;;;;;5139389;27;20043;-76
2022/03/17 04:38:38;;;;;;;10.10;5.60;;;7.80;99.90;;;;;;5155727;27;19922;-76
2022/03/17 04:41:04;;;;;;;;;;;7.70;99.90;;;;;;5138373;27;20125;-76
2022/03/17 04:43:30;;;;;;;10.32;5.80;;;7.70;99.90;;;;;;5157705;27;20017;-76
2022/03/17 04:45:55;;;;;;;;;;;7.70;99.90;;;;;;5139395;27;20046;-76
2022/03/17 04:48:21;;;;;;;14.82;7.97;;;7.70;99.90;;;;;;5136284;27;20426;-76
2022/03/17 04:50:47;;;;;;;;;;;7.70;99.90;;;;;;5139409;27;20397;-76
2022/03/17 04:53:27;;;;;;;20.20;8.57;;;7.60;99.90;;;;;;5156719;27;20290;-76
2022/03/17 04:56:14;;;;;;;17.75;8.77;;;7.60;99.90;;;;;;5156918;27;20489;-76
2022/03/17 04:58:42;;;;;;;20.88;8.40;;;7.60;99.90;;;;;;5157445;27;20046;-76
2022/03/17 05:01:08;;;;;;;15.25;6.53;;;7.50;99.90;;;;;;5156460;27;20394;-76
2022/03/17 05:03:37;;;;;;;17.13;6.07;;;7.50;99.90;;;;;;5145617;27;20039;-76
2022/03/17 05:06:03;;;;;;;14.63;6.30;;;7.50;99.90;;;;;;5118293;27;20448;-75
2022/03/17 05:08:29;;;;;;;;;;;7.40;99.90;;;;;;5117689;27;20062;-75
2022/03/17 05:10:55;;;;;;;13.15;5.15;;;7.40;99.90;;;;;;5118067;27;19919;-75
2022/03/17 05:13:23;;;;;;;15.65;4.57;;;7.40;99.90;;;;;;5116696;27;20051;-76
2022/03/17 05:15:49;;;;;;;10.98;3.60;;;7.40;99.90;;;;;;5135839;27;20042;-76
2022/03/17 05:18:15;;;;;;;11.02;3.40;;;7.50;99.90;;;;;;5148909;27;20156;-76
2022/03/17 05:20:41;;;;;;;11.07;3.55;;;7.40;99.90;;;;;;5156954;27;20098;-76
2022/03/17 05:23:08;;;;;;;;;;;7.40;99.90;;;;;;5137532;27;20047;-76
2022/03/17 05:25:35;;;;;;;10.77;2.92;;;7.40;99.90;;;;;;5156758;27;19966;-76
2022/03/17 05:28:03;;;;;;;15.23;3.28;;;7.90;99.90;;;;;;5156529;27;20042;-76
2022/03/17 05:30:29;;;;;;;9.10;2.92;;;7.40;99.90;;;;;;5155799;27;20129;-75
2022/03/17 05:32:55;;;;;;;;;;;7.30;99.90;;;;;;5136635;27;20073;-76
2022/03/17 05:35:20;;;;;;;9.90;3.53;;;7.30;99.90;;;;;;5156273;27;19915;-76
2022/03/17 05:37:46;;;;;;;;;;;7.30;99.90;;;;;;5138034;27;20038;-76
2022/03/17 05:40:15;;;;;;;8.57;3.05;;;7.30;99.90;;;;;;5156241;27;19966;-75
2022/03/17 05:42:42;;;;;;;11.52;3.13;;;7.30;99.90;;;;;;5137912;27;20038;-76
2022/03/17 05:45:09;;;;;;;10.38;3.30;;;7.30;99.90;;;;;;5136878;27;20054;-75
2022/03/17 05:47:42;;;;;;;9.13;3.35;;;7.40;99.90;;;;;;5150260;27;20045;-76
2022/03/17 05:50:11;;;;;;;10.88;3.40;;;7.40;99.90;;;;;;5121842;27;20122;-75
2022/03/17 05:52:38;;;;;;;8.10;2.80;;;7.30;99.90;;;;;;5138209;27;20042;-76
2022/03/17 05:55:09;;;;;;;8.57;2.60;;;7.30;99.90;;;;;;5115854;27;20134;-75
2022/03/17 05:57:39;;;;;;;9.18;2.30;;;7.30;99.90;;;;;;5135354;27;20035;-76
2022/03/17 06:00:07;;;;;;;8.38;2.67;;;7.40;99.90;;;;;;5115519;27;20510;-75
2022/03/17 06:02:34;;;;;;;8.40;2.38;;;7.30;99.90;;;;;;5126926;27;20046;-75
2022/03/17 06:04:59;;;;;;;7.22;2.33;;;7.30;99.90;;;;;;5154749;27;20486;-74
2022/03/17 06:07:25;;;;;;;;;;;7.30;99.90;;;;;;5146831;27;20046;-75
2022/03/17 06:09:50;;;;;;;13.15;2.42;;;7.20;99.90;;;;;;5154851;27;19930;-76
2022/03/17 06:12:16;;;;;;;;;;;7.20;99.90;;;;;;5155208;27;20043;-76
2022/03/17 06:14:42;;;;;;;11.80;2.65;;;7.20;99.90;;;;;;5149164;27;19919;-76
2022/03/17 06:17:11;;;;;;;11.40;2.28;;;7.20;99.90;;;;;;5143525;27;20478;-75
2022/03/17 06:19:36;;;;;;;8.50;2.17;;;7.20;99.90;;;;;;5151725;27;20062;-77
2022/03/17 06:22:02;;;;;;;;;;;7.30;99.90;;;;;;5155136;27;20401;-73
2022/03/17 06:24:27;;;;;;;12.07;2.65;;;7.30;99.90;;;;;;5153990;27;19999;-76
2022/03/17 06:26:53;;;;;;;;;;;7.80;99.90;;;;;;5136793;27;20035;-76
2022/03/17 06:29:18;;;;;;;10.38;2.38;;;7.20;99.90;;;;;;5133727;27;20318;-78
2022/03/17 06:31:44;;;;;;;;;;;7.20;99.90;;;;;;5134691;27;20039;-77
2022/03/17 06:34:09;;;;;;;9.00;2.03;;;7.20;99.90;;;;;;5133717;27;19920;-76
2022/03/17 06:36:35;;;;;;;;;;;7.20;99.90;;;;;;5137658;27;20042;-78
2022/03/17 06:39:00;;;;;;;11.75;2.30;;;7.20;99.90;;;;;;5147590;27;20335;-80
2022/03/17 06:41:26;;;;;;;;;;;7.20;99.90;;;;;;5134296;27;20050;-79
2022/03/17 06:43:52;;;;;;;9.55;1.90;;;7.20;99.90;;;;;;5153377;27;19919;-79
2022/03/17 06:46:17;;;;;;;;;;;7.20;99.90;;;;;;5153269;27;20090;-75
2022/03/17 06:48:43;;;;;;;9.50;1.92;;;7.20;99.90;;;;;;5154771;27;19919;-76
2022/03/17 06:51:08;;;;;;;;;;;7.20;99.90;;;;;;5136290;27;20046;-83
2022/03/17 06:53:34;;;;;;;8.45;2.10;;;7.20;99.90;;;;;;5130895;27;19965;-80
2022/03/17 06:55:59;;;;;;;;;;;7.30;99.90;;;;;;5152054;27;20097;-80
2022/03/17 06:58:25;;;;;;;14.68;2.08;;;7.90;99.90;;;;;;5153178;27;19919;-80
2022/03/17 07:00:50;;;;;;;;;;;7.90;99.90;;;;;;5153231;27;20039;-81
2022/03/17 07:03:18;;;;;;;11.10;2.33;;;7.30;99.90;;;;;;5152602;27;20001;-80
2022/03/17 07:05:44;;;;;;;10.30;2.08;;;7.30;99.90;;;;;;5134684;27;20030;-81
2022/03/17 07:08:10;;;;;;;;;;;7.40;99.90;;;;;;5154214;27;20049;-83
2022/03/17 07:10:36;;;;;;;13.27;2.55;;;7.30;99.90;;;;;;5152784;27;19939;-81
2022/03/17 07:13:01;;;;;;;;;;;7.30;99.90;;;;;;5136817;27;20126;-84
2022/03/17 07:15:28;;;;;;;12.60;2.47;;;7.40;99.90;;;;;;5135205;27;19919;-80
2022/03/17 07:17:54;;;;;;;11.38;1.60;;;7.30;99.90;;;;;;5135924;27;20074;-86
2022/03/17 07:20:19;;;;;;;;;;;7.40;99.90;;;;;;5119496;27;20147;-83
2022/03/17 07:22:47;;;;;;;14.30;2.17;;;7.40;99.90;;;;;;5134458;27;19920;-79
2022/03/17 07:25:14;;;;;;;11.52;2.58;;;7.40;99.90;;;;;;5144688;27;20079;-76
2022/03/17 07:27:43;;;;;;;14.73;2.60;;;7.40;99.90;;;;;;5154344;27;20043;-76
2022/03/17 07:30:11;;;;;;;12.55;2.60;;;7.40;99.90;;;;;;5131163;27;20060;-75
2022/03/17 07:32:38;;;;;;;9.50;2.17;;;7.40;99.90;;;;;;5151038;27;20110;-77
2022/03/17 07:35:04;;;;;;;14.80;2.63;;;7.40;99.90;;;;;;5131837;27;20130;-75
2022/03/17 07:37:30;;;;;;;13.43;2.60;;;7.40;99.90;;;;;;5148097;27;20043;-77
2022/03/17 07:39:56;;;;;;;;;;;7.40;99.90;;;;;;5132512;27;20050;-75
2022/03/17 07:42:21;;;;;;;14.35;1.90;;;7.40;99.90;;;;;;5150098;27;20386;-75
2022/03/17 07:44:47;;;;;;;;;;;7.40;99.90;;;;;;5131671;27;20054;-75
2022/03/17 07:47:13;;;;;;;6.95;1.90;;;7.40;99.90;;;;;;5111139;28;19930;-75
2022/03/17 07:49:39;;;;;;;;;;;7.40;99.90;;;;;;5111761;28;20047;-76
2022/03/17 07:52:05;;;;;;;11.52;2.33;;;7.40;99.90;;;;;;5133812;27;19926;-80
2022/03/17 07:54:31;;;;;;;7.90;2.05;;;7.50;99.90;;;;;;5129469;27;20173;-79
2022/03/17 07:56:57;;;;;;;;;;;7.50;99.90;;;;;;5140628;27;20039;-77
2022/03/17 07:59:26;;;;;;;10.40;3.15;;;7.40;99.90;;;;;;5136101;27;19924;-76
2022/03/17 08:01:52;;;;;;;10.32;2.00;;;7.50;99.90;;;;;;5110468;28;20050;-75
2022/03/17 08:04:18;;;;;;;;;;;7.50;99.90;;;;;;5129792;27;20039;-77
2022/03/17 08:06:43;;;;;;;8.48;2.00;;;7.50;99.90;;;;;;5136245;27;20365;-78
2022/03/17 08:09:09;;;;;;;;;;;7.50;99.90;;;;;;5150082;27;20175;-79
2022/03/17 08:11:34;;;;;;;7.13;2.08;;;7.60;99.90;;;;;;5149575;27;19927;-75
2022/03/17 08:14:00;;;;;;;;;;;7.70;99.90;;;;;;5127961;27;20035;-75
2022/03/17 08:16:25;;;;;;;7.68;2.28;;;7.70;99.90;;;;;;5142858;27;20261;-77
2022/03/17 08:18:51;;;;;;;;;;;7.80;99.90;;;;;;5150490;27;20030;-77
2022/03/17 08:21:17;;;;;;;12.13;2.42;;;7.80;99.90;;;;;;5127492;27;20415;-74
2022/03/17 08:23:43;;;;;;;11.13;2.22;;;7.90;99.90;;;;;;5128690;27;20039;-77
2022/03/17 08:26:09;;;;;;;;;;;8.20;99.90;;;;;;5139339;27;20398;-79
2022/03/17 08:28:35;;;;;;;9.55;2.40;;;8.30;99.90;;;;;;5149257;27;20006;-75
2022/03/17 08:31:00;;;;;;;;;;;8.30;99.90;;;;;;5118989;28;20104;-77
2022/03/17 08:33:26;;;;;;;7.72;2.85;;;8.20;99.90;;;;;;5137690;27;20010;-78
2022/03/17 08:35:52;;;;;;;;;;;8.50;99.90;;;;;;5142163;27;20051;-79
2022/03/17 08:38:18;;;;;;;7.38;1.60;;;8.70;99.90;;;;;;5141015;27;19919;-80
2022/03/17 08:40:44;;;;;;;;;;;8.90;99.90;;;;;;5122525;27;20122;-76
2022/03/17 08:43:11;;;;;;;11.77;2.17;;;9.30;99.90;;;;;;5117459;28;19968;-78
2022/03/17 08:51:08;;;;;;;7.95;2.53;;;10.50;99.90;;;;;;5136304;27;20043;-82
2022/03/17 08:53:33;;;;;;;10.23;2.35;;;11.40;99.90;;;;;;5117696;27;20083;-78
2022/03/17 08:56:01;;;;;;;;;;;12.60;99.90;;;;;;5116659;27;20151;-79
2022/03/17 08:58:27;;;;;;;;;;;13.50;99.90;;;;;;5118354;27;19919;-78
2022/03/17 09:00:54;;;;;;;10.88;1.77;;;13.90;99.90;;;;;;5117717;27;19972;-77
2022/03/17 09:03:20;;;;;;;7.30;2.08;;;13.40;99.90;;;;;;5135343;27;20074;-78
2022/03/17 09:05:46;;;;;;;12.52;2.72;;;13.60;99.90;;;;;;5135878;27;20136;-79
2022/03/17 09:08:11;;;;;;;;;;;14.30;99.90;;;;;;5135628;27;20071;-79
2022/03/17 09:10:41;;;;;;;6.25;2.03;;;14.90;99.90;;;;;;5123624;27;19926;-78
2022/03/17 09:13:10;;;;;;;11.73;2.80;;;14.90;99.90;;;;;;5133182;27;20409;-80
2022/03/17 09:15:39;;;;;;;9.20;2.10;;;15.00;99.90;;;;;;5156717;27;20038;-80
2022/03/17 09:18:09;;;;;;;7.63;1.98;;;15.30;99.90;;;;;;5156704;27;20046;-80
2022/03/17 09:20:36;;;;;;;5.60;1.85;;;16.00;99.90;;;;;;5137612;27;20046;-79
2022/03/17 09:23:02;;;;;;;6.80;1.98;;;16.50;99.90;;;;;;5137847;27;20035;-79
2022/03/17 09:25:28;;;;;;;7.22;2.20;;;17.10;99.90;;;;;;5156471;27;20208;-79
2022/03/17 09:27:55;;;;;;;7.53;2.08;;;17.30;99.30;;;;;;5152863;27;20125;-79
2022/03/17 09:30:25;;;;;;;11.93;2.42;;;17.70;99.70;;;;;;5135193;27;20139;-84
2022/03/17 09:32:54;;;;;;;10.13;2.72;;;18.00;97.50;;;;;;5156739;27;20042;-87
2022/03/17 09:35:20;;;;;;;10.55;2.60;;;18.50;97.50;;;;;;5150852;27;20039;-87
2022/03/17 09:37:46;;;;;;;9.20;2.63;;;18.60;97.00;;;;;;5141902;27;20497;-79
2022/03/17 09:40:13;;;;;;;9.68;2.38;;;18.90;96.60;;;;;;5150242;27;20043;-79
2022/03/17 09:42:39;;;;;;;10.38;2.50;;;18.70;95.50;;;;;;5155336;27;20553;-78
2022/03/17 09:45:09;;;;;;;9.40;2.13;;;19.10;94.50;;;;;;5155881;27;20118;-79
2022/03/17 09:47:37;;;;;;;10.02;2.55;;;19.20;93.20;;;;;;5156251;27;20465;-79
2022/03/17 09:50:05;;;;;;;10.10;2.45;;;19.90;94.70;;;;;;5155446;27;20103;-81
2022/03/17 09:52:32;;;;;;;14.23;3.03;;;19.30;91.90;;;;;;5155491;27;20046;-79
2022/03/17 09:54:58;;;;;;;6.63;2.22;;;19.60;91.40;;;;;;5151013;27;20054;-80
2022/03/17 09:57:24;;;;;;;7.50;2.20;;;20.30;91.40;;;;;;5148820;27;20047;-83
2022/03/17 09:59:56;;;;;;;7.85;2.10;;;19.20;89.00;;;;;;5116386;27;20077;-81
2022/03/17 10:02:25;;;;;;;8.32;2.50;;;19.30;90.30;;;;;;5138535;27;20050;-83
2022/03/17 10:04:51;;;;;;;8.05;2.30;;;18.50;92.80;;;;;;5116481;27;20053;-79
2022/03/17 10:07:22;;;;;;;9.95;3.13;;;18.90;94.10;;;;;;5138110;27;20070;-86
2022/03/17 10:09:49;;;;;;;8.35;2.08;;;18.40;93.60;;;;;;5154673;27;20144;-81
2022/03/17 10:12:20;;;;;;;7.93;2.40;;;18.10;93.50;;;;;;5135595;27;20039;-83
2022/03/17 10:14:48;;;;;;;11.95;2.85;;;18.00;94.90;;;;;;5135188;27;20482;-81
2022/03/17 10:17:33;;;;;;;9.73;2.60;;;17.60;94.80;;;;;;5134218;27;20434;-81
2022/03/17 10:20:27;;;;;;;8.73;2.70;;;17.50;94.60;;;;;;5143264;27;20043;-86
2022/03/17 10:22:58;;;;;;;8.20;2.53;;;17.50;95.60;;;;;;5136554;27;20134;-81
2022/03/17 10:25:25;;;;;;;7.85;2.65;;;17.30;93.80;;;;;;5154662;27;20660;-82
2022/03/17 10:27:55;;;;;;;9.05;2.60;;;17.00;96.00;;;;;;5154589;27;20034;-80
2022/03/17 10:30:33;;;;;;;11.95;2.88;;;17.20;96.60;;;;;;5154511;27;20107;-80
2022/03/17 10:33:03;;;;;;;13.45;3.05;;;17.50;96.30;;;;;;5142839;27;20096;-79
2022/03/17 10:35:34;;;;;;;12.27;2.83;;;17.80;95.70;;;;;;5133051;27;20043;-80
2022/03/17 10:38:15;;;;;;;10.95;3.00;;;17.20;96.60;;;;;;5115745;27;20042;-84
2022/03/17 10:40:42;;;;;;;7.45;2.15;;;17.80;96.80;;;;;;5134063;27;20050;-83
2022/03/17 10:43:24;;;;;;;9.73;2.60;;;18.20;95.80;;;;;;5134626;27;20498;-83
2022/03/17 10:46:06;;;;;;;7.10;2.08;;;18.90;95.40;;;;;;5133753;27;20554;-82
2022/03/17 10:48:32;;;;;;;9.98;2.50;;;19.20;92.50;;;;;;5140252;27;20050;-81
2022/03/17 10:50:58;;;;;;;10.95;2.92;;;18.80;92.10;;;;;;5140752;27;20216;-80
2022/03/17 10:53:33;;;;;;;8.95;2.30;;;18.70;93.20;;;;;;5133085;27;20118;-80
2022/03/17 10:56:12;;;;;;;7.55;2.55;;;18.60;93.60;;;;;;5134701;27;20092;-81
2022/03/17 10:58:43;;;;;;;10.90;2.95;;;18.80;92.90;;;;;;5141754;27;20050;-86
2022/03/17 11:01:09;;;;;;;11.23;2.60;;;18.30;93.70;;;;;;5134473;27;20043;-80
2022/03/17 11:03:35;;;;;;;8.68;2.72;;;18.90;93.50;;;;;;5128387;27;20493;-86
2022/03/17 11:06:06;;;;;;;9.88;2.70;;;18.50;91.20;;;;;;5153936;27;20118;-85
2022/03/17 11:08:32;;;;;;;11.40;2.30;;;18.10;93.50;;;;;;5143689;27;20057;-83
2022/03/17 11:10:58;;;;;;;10.32;2.65;;;18.60;92.60;;;;;;5145687;27;20043;-83
2022/03/17 11:13:27;;;;;;;8.75;2.45;;;18.50;91.30;;;;;;5115079;27;20043;-82
2022/03/17 11:16:09;;;;;;;8.48;2.30;;;18.20;92.30;;;;;;5147808;27;20043;-78
2022/03/17 11:18:37;;;;;;;12.98;2.78;;;18.70;92.90;;;;;;5154499;27;20052;-77
2022/03/17 11:21:19;;;;;;;12.07;2.72;;;19.10;92.10;;;;;;5153981;27;20408;-76
2022/03/17 11:23:59;;;;;;;13.23;3.15;;;19.30;91.80;;;;;;5154502;27;20129;-82
2022/03/17 11:26:34;;;;;;;9.80;2.70;;;18.80;90.90;;;;;;5146771;27;20046;-80
2022/03/17 11:29:10;;;;;;;9.00;2.00;;;17.60;91.80;;;;;;5138259;27;20046;-81
2022/03/17 11:32:01;;;;;;;7.95;2.40;;;16.70;95.00;;;;;;5151088;27;20051;-77
2022/03/17 11:34:38;;;;;;;5.43;1.80;;;16.70;93.80;;;;;;5153401;27;20507;-81
2022/03/17 11:37:19;;;;;;;10.20;2.10;;;16.30;93.70;;;;;;5142129;27;20130;-78
2022/03/17 11:39:48;;;;;;;8.60;2.13;;;16.10;95.30;;;;;;5135158;27;20038;-76
2022/03/17 11:42:38;;;;;;;6.10;2.08;;;16.70;95.30;;;;;;5141092;27;20049;-76
2022/03/17 11:45:12;;;;;;;10.40;2.33;;;16.60;94.90;;;;;;5124487;27;20061;-74
2022/03/17 11:47:43;;;;;;;9.18;2.30;;;16.70;96.30;;;;;;5146709;27;20495;-77
2022/03/17 11:50:31;;;;;;;6.68;2.10;;;17.20;96.30;;;;;;5132205;28;20474;-78
2022/03/17 11:53:05;;;;;;;7.18;2.42;;;17.70;93.50;;;;;;5133961;28;20043;-76
2022/03/17 11:55:34;;;;;;;10.90;2.35;;;17.50;94.70;;;;;;5115295;28;20046;-79
2022/03/17 11:58:29;;;;;;;8.23;2.30;;;17.70;93.50;;;;;;5114484;28;20115;-80
2022/03/17 12:01:03;;;;;;;9.90;2.40;;;17.80;93.70;;;;;;5115000;28;20134;-77
2022/03/17 12:03:38;;;;;;;9.88;2.45;;;18.00;93.50;;;;;;5134049;27;20104;-77
2022/03/17 12:06:07;;;;;;;11.88;2.28;;;18.40;92.40;;;;;;5114586;28;20051;-80
2022/03/17 12:08:38;;;;;;;9.57;2.38;;;18.80;92.00;;;;;;5118408;27;20493;-78
2022/03/17 12:11:07;;;;;;;8.88;2.30;;;18.70;90.50;;;;;;5142246;27;20498;-77
2022/03/17 12:13:34;;;;;;;9.60;2.00;;;20.20;90.20;;;;;;5147756;27;20043;-77
2022/03/17 12:16:01;;;;;;;10.60;2.25;;;19.30;88.30;;;;;;5114722;28;20443;-79
2022/03/17 12:18:28;;;;;;;6.28;2.13;;;19.80;87.10;;;;;;5132147;28;20474;-77
2022/03/17 12:20:54;;;;;;;8.18;2.05;;;18.60;88.20;;;;;;5132858;28;20065;-77
2022/03/17 12:23:43;;;;;;;10.82;2.17;;;18.80;90.30;;;;;;5135940;27;20043;-77
2022/03/17 12:26:18;;;;;;;8.75;1.73;;;18.70;86.70;;;;;;5130745;27;20039;-76
2022/03/17 12:28:47;;;;;;;8.48;2.45;;;18.90;87.40;;;;;;5157584;27;20401;-77
2022/03/17 12:31:16;;;;;;;7.22;2.50;;;18.90;86.70;;;;;;5138430;27;20133;-77
2022/03/17 12:33:51;;;;;;;8.52;2.10;;;18.50;87.10;;;;;;5137340;27;20248;-78
2022/03/17 12:36:17;;;;;;;9.05;2.00;;;18.50;87.50;;;;;;5138135;27;20043;-76
2022/03/17 12:38:42;;;;;;;7.15;1.90;;;18.30;86.80;;;;;;5135588;27;20057;-78
2022/03/17 12:41:14;;;;;;;7.63;2.08;;;18.20;85.10;;;;;;5135190;27;20035;-80
2022/03/17 12:43:41;;;;;;;7.40;2.15;;;18.70;87.70;;;;;;5135821;27;20062;-79
2022/03/17 12:46:07;;;;;;;6.88;2.10;;;19.40;88.30;;;;;;5126831;27;20031;-80
2022/03/17 12:48:34;;;;;;;7.20;1.90;;;18.50;88.60;;;;;;5136845;27;20122;-78
2022/03/17 12:51:05;;;;;;;8.18;2.50;;;18.80;86.40;;;;;;5117988;27;20176;-79
2022/03/17 12:53:31;;;;;;;6.68;1.90;;;18.60;88.00;;;;;;5137448;27;20053;-77
2022/03/17 12:55:57;;;;;;;7.65;1.92;;;18.30;89.10;;;;;;5136541;27;20118;-79
2022/03/17 12:58:24;;;;;;;8.25;2.08;;;18.10;88.90;;;;;;5136166;27;20464;-77
2022/03/17 13:00:50;;;;;;;8.50;2.15;;;17.90;90.20;;;;;;5142258;27;20042;-80
2022/03/17 13:03:17;;;;;;;9.00;2.10;;;18.40;90.20;;;;;;5157219;27;20071;-79
2022/03/17 13:08:38;;;;;;;9.73;2.22;;;18.40;85.90;;;;;;5136320;27;20039;-79
2022/03/17 13:16:46;;;;;;;6.38;2.25;;;18.30;91.90;;;;;;5118746;27;20051;-79
2022/03/17 13:19:12;;;;;;;10.48;2.50;;;18.20;92.90;;;;;;5116587;27;20055;-78
2022/03/17 13:21:38;;;;;;;5.88;1.60;;;16.50;93.70;;;;;;5127021;27;20382;-82
2022/03/17 13:24:15;;;;;;;5.35;1.65;;;16.60;94.00;;;;;;5117268;27;20449;-80
2022/03/17 13:26:42;;;;;;;6.45;1.83;;;16.10;93.90;;;;;;5138609;27;20043;-83